首页
METAR-TAF:

METAR-TAF

机场 :

查尔斯市, 艾奥瓦州, 美国

纬度: 43-04N, 经度: 092-37W, 海拔: 343米

当前天气观测

该预报发布于15分钟前的07:35 UTC
风速8节,风向西转西北
温度 -18°C
湿度 71%
气压 1017 hPa
能見度: 16.1公里
天空无云

METAR: KCCY 100735Z AUTO 29008KT 10SM CLR M18/M22 A3003 RMK AO2

时间: 01:50 (07:50 UTC)


TAF: 丢失

超过4000个机场的气象观测和天气预报(METAR&TAF报告)。

可查询的气象台以黄色和红色小点在地图上表示。

将鼠标移到小点上方,可查看气象台名称。

然后点击查看天气观测和预报。

如需切换地图:点击带黑十字的绿色按钮放大地图;点击带横线的绿色按钮缩小地图;或者点击绿色箭头查看邻近地区的地图。


METAR-TAF: